createdAt,value
2018-02-20T00:00:01.259Z,59.3
2018-02-20T00:01:01.170Z,59.1
2018-02-20T00:02:01.123Z,58.9
2018-02-20T00:03:01.032Z,59.3
2018-02-20T00:04:00.964Z,59
2018-02-20T00:05:00.916Z,59.1
2018-02-20T00:06:00.849Z,59.3
2018-02-20T00:07:00.756Z,59.3
2018-02-20T00:08:00.707Z,59.5
2018-02-20T00:09:00.621Z,59.6
2018-02-20T00:10:00.579Z,59.7
2018-02-20T00:11:00.550Z,59.6
2018-02-20T00:12:00.413Z,59.8
2018-02-20T00:13:00.344Z,59.9
2018-02-20T00:14:00.301Z,59.9
2018-02-20T00:15:00.205Z,60
2018-02-20T00:16:00.159Z,60.1
2018-02-20T00:17:00.094Z,60.2
2018-02-20T00:18:00.020Z,60.1
2018-02-20T00:18:59.930Z,60.2
2018-02-20T00:19:59.862Z,60.2
2018-02-20T00:20:59.822Z,60.2
2018-02-20T00:21:59.722Z,60.1
2018-02-20T00:22:59.674Z,60.1
2018-02-20T00:23:59.613Z,60.2
2018-02-20T00:24:59.525Z,60.2
2018-02-20T00:25:59.469Z,60.1
2018-02-20T00:26:59.407Z,60.1
2018-02-20T00:27:59.311Z,60
2018-02-20T00:28:59.261Z,60
2018-02-20T00:29:59.173Z,60.1
2018-02-20T00:30:59.104Z,60.1
2018-02-20T00:31:59.060Z,60
2018-02-20T00:32:58.991Z,60
2018-02-20T00:33:58.898Z,60
2018-02-20T00:34:58.849Z,60
2018-02-20T00:35:58.760Z,59.9
2018-02-20T00:36:58.715Z,59.9
2018-02-20T00:37:58.691Z,59.9
2018-02-20T00:38:58.553Z,59.9
2018-02-20T00:39:58.491Z,59.9
2018-02-20T00:40:58.439Z,59.9
2018-02-20T00:41:58.345Z,59.9
2018-02-20T00:42:58.300Z,59.9
2018-02-20T00:43:58.209Z,59.9
2018-02-20T00:44:58.139Z,59.9
2018-02-20T00:45:58.093Z,59.8
2018-02-20T00:46:58.001Z,59.8
2018-02-20T00:47:57.956Z,59.8
2018-02-20T00:48:57.884Z,59.8
2018-02-20T00:49:57.813Z,59.8
2018-02-20T00:50:57.726Z,59.8
2018-02-20T00:51:57.659Z,59.8
2018-02-20T00:52:57.608Z,59.8
2018-02-20T00:53:57.537Z,59.8
2018-02-20T00:54:57.451Z,59.8
2018-02-20T00:55:57.378Z,59.7
2018-02-20T00:56:57.332Z,59.7
2018-02-20T00:57:57.262Z,59.7
2018-02-20T00:58:57.194Z,59.7
2018-02-20T00:59:57.104Z,59.7
2018-02-20T01:00:57.035Z,59.4
2018-02-20T01:01:56.987Z,59.1
2018-02-20T01:02:56.918Z,59.3
2018-02-20T01:03:56.828Z,59.1
2018-02-20T01:04:56.780Z,58.9
2018-02-20T01:05:56.691Z,59.2
2018-02-20T01:06:56.643Z,59.1
2018-02-20T01:07:56.581Z,59.3
2018-02-20T01:08:56.483Z,59.1
2018-02-20T01:09:56.421Z,59.2
2018-02-20T01:10:56.366Z,59
2018-02-20T01:11:56.277Z,59.2
2018-02-20T01:12:56.236Z,59.3
2018-02-20T01:13:56.139Z,59.1
2018-02-20T01:14:56.092Z,59.1
2018-02-20T01:15:56.002Z,59.1
2018-02-20T01:16:55.939Z,59.3
2018-02-20T01:17:55.888Z,59.1
2018-02-20T01:18:55.795Z,59.1
2018-02-20T01:19:55.746Z,59.1
2018-02-20T01:20:55.685Z,59.1
2018-02-20T01:21:55.589Z,59.1
2018-02-20T01:22:55.540Z,59.1
2018-02-20T01:23:55.470Z,59.1
2018-02-20T01:24:55.381Z,59
2018-02-20T01:25:55.338Z,59
2018-02-20T01:26:55.243Z,59.1
2018-02-20T01:27:55.178Z,59
2018-02-20T01:28:55.127Z,59
2018-02-20T01:29:55.037Z,59
2018-02-20T01:30:54.968Z,59
2018-02-20T01:31:54.926Z,58.9
2018-02-20T01:32:54.830Z,59
2018-02-20T01:33:54.782Z,58.9
2018-02-20T01:34:54.717Z,58.9
2018-02-20T01:35:54.623Z,58.9
2018-02-20T01:36:54.555Z,58.9
2018-02-20T01:37:54.508Z,58.9
2018-02-20T01:38:54.422Z,58.9
2018-02-20T01:39:54.366Z,58.9
2018-02-20T01:40:54.278Z,58.9
2018-02-20T01:41:54.214Z,58.9
2018-02-20T01:42:54.167Z,58.9
2018-02-20T01:43:54.074Z,58.9
2018-02-20T01:44:54.028Z,58.9
2018-02-20T01:45:53.933Z,58.9
2018-02-20T01:46:53.885Z,58.9
2018-02-20T01:47:53.795Z,58.8
2018-02-20T01:48:53.727Z,58.8
2018-02-20T01:49:53.678Z,58.8
2018-02-20T01:50:53.613Z,58.8
2018-02-20T01:51:53.520Z,58.8
2018-02-20T01:52:53.451Z,58.8
2018-02-20T01:53:53.382Z,58.8
2018-02-20T01:54:53.332Z,58.8
2018-02-20T01:55:53.271Z,58.8
2018-02-20T01:56:53.178Z,58.8
2018-02-20T01:57:53.106Z,58.8
2018-02-20T01:58:53.065Z,58.8
2018-02-20T01:59:53.040Z,58.8
2018-02-20T02:00:52.920Z,58.6
2018-02-20T02:01:52.860Z,58.1
2018-02-20T02:02:52.760Z,58.4
2018-02-20T02:03:52.714Z,58.3
2018-02-20T02:04:52.649Z,58.1
2018-02-20T02:05:52.574Z,58.3
2018-02-20T02:06:52.484Z,58.1
2018-02-20T02:07:52.438Z,58.4
2018-02-20T02:08:52.352Z,58.3
2018-02-20T02:09:52.351Z,58.3
2018-02-20T02:10:52.227Z,58.2
2018-02-20T02:11:52.161Z,58.2
2018-02-20T02:12:52.091Z,58.4
2018-02-20T02:13:52.007Z,58.3
2018-02-20T02:14:51.955Z,58.3
2018-02-20T02:15:51.866Z,58.2
2018-02-20T02:16:51.818Z,58.3
2018-02-20T02:17:51.750Z,58.3
2018-02-20T02:18:51.658Z,58.2
2018-02-20T02:19:51.616Z,58.3
2018-02-20T02:20:51.544Z,58.2
2018-02-20T02:21:51.477Z,58.3
2018-02-20T02:22:51.403Z,58.3
2018-02-20T02:23:51.342Z,58.3
2018-02-20T02:24:51.294Z,58.2
2018-02-20T02:25:51.197Z,58.1
2018-02-20T02:26:51.107Z,58.2
2018-02-20T02:27:51.057Z,58.2
2018-02-20T02:28:50.990Z,58.2
2018-02-20T02:29:50.920Z,58.2
2018-02-20T02:30:50.860Z,58.2
2018-02-20T02:31:50.794Z,58.2
2018-02-20T02:32:50.693Z,58.1
2018-02-20T02:33:50.646Z,58.1
2018-02-20T02:34:50.578Z,58.1
2018-02-20T02:35:50.488Z,58.1
2018-02-20T02:36:50.440Z,58.1
2018-02-20T02:37:50.351Z,58.1
2018-02-20T02:38:50.301Z,58.1
2018-02-20T02:39:50.232Z,58.1
2018-02-20T02:40:50.163Z,58.1
2018-02-20T02:41:50.089Z,58.1
2018-02-20T02:42:50.026Z,58.1
2018-02-20T02:43:49.938Z,58.1
2018-02-20T02:44:49.888Z,58.1
2018-02-20T02:45:49.820Z,58.1
2018-02-20T02:46:49.756Z,58.1
2018-02-20T02:47:49.661Z,58.1
2018-02-20T02:48:49.612Z,58.1
2018-02-20T02:49:49.545Z,58.1
2018-02-20T02:50:49.473Z,58.1
2018-02-20T02:51:49.402Z,58
2018-02-20T02:52:49.313Z,58.1
2018-02-20T02:53:49.269Z,58
2018-02-20T02:54:49.204Z,58
2018-02-20T02:55:49.108Z,58
2018-02-20T02:56:49.054Z,58
2018-02-20T02:57:48.989Z,58
2018-02-20T02:58:48.920Z,58
2018-02-20T02:59:48.853Z,58
2018-02-20T03:00:48.762Z,57.9
2018-02-20T03:01:48.712Z,57.4
2018-02-20T03:02:48.649Z,57.7
2018-02-20T03:03:48.576Z,57.6
2018-02-20T03:04:48.486Z,57.3
2018-02-20T03:05:48.421Z,57.6
2018-02-20T03:06:48.367Z,57.3
2018-02-20T03:07:48.300Z,57.6
2018-02-20T03:08:48.238Z,57.6
2018-02-20T03:09:48.162Z,57.6
2018-02-20T03:10:48.098Z,57.6
2018-02-20T03:11:48.004Z,57.3
2018-02-20T03:12:47.956Z,57.7
2018-02-20T03:13:47.889Z,57.6
2018-02-20T03:14:47.818Z,57.5
2018-02-20T03:15:47.755Z,57.5
2018-02-20T03:16:47.659Z,57.5
2018-02-20T03:17:47.609Z,57.6
2018-02-20T03:18:47.545Z,57.5
2018-02-20T03:19:47.470Z,57.5
2018-02-20T03:20:47.404Z,57.5
2018-02-20T03:21:47.314Z,57.5
2018-02-20T03:22:47.247Z,57.5
2018-02-20T03:23:47.200Z,57.5
2018-02-20T03:24:47.130Z,57.5
2018-02-20T03:25:47.058Z,57.4
2018-02-20T03:26:46.993Z,57.4
2018-02-20T03:27:46.918Z,57.5
2018-02-20T03:28:46.840Z,57.4
2018-02-20T03:29:46.782Z,57.5
2018-02-20T03:30:46.715Z,57.4
2018-02-20T03:31:46.626Z,57.4
2018-02-20T03:32:46.579Z,57.4
2018-02-20T03:33:46.491Z,57.4
2018-02-20T03:34:46.443Z,57.4
2018-02-20T03:35:46.371Z,57.3
2018-02-20T03:36:46.301Z,56.5
2018-02-20T03:37:46.212Z,55.9
2018-02-20T03:38:46.168Z,55.8
2018-02-20T03:39:46.095Z,54.9
2018-02-20T03:40:46.024Z,53.9
2018-02-20T03:41:45.955Z,53.2
2018-02-20T03:42:45.913Z,52.7
2018-02-20T03:43:45.800Z,51.7
2018-02-20T03:44:45.747Z,50.9
2018-02-20T03:45:45.686Z,49.9
2018-02-20T03:46:45.591Z,49.4
2018-02-20T03:47:45.544Z,49.6
2018-02-20T03:48:45.453Z,49.3
2018-02-20T03:49:45.410Z,49.4
2018-02-20T03:50:45.337Z,49.3
2018-02-20T03:51:45.266Z,49.7
2018-02-20T03:52:45.194Z,49.6
2018-02-20T03:53:45.129Z,49.7
2018-02-20T03:54:45.045Z,49.7
2018-02-20T03:55:44.994Z,49.9
2018-02-20T03:56:44.925Z,49.9
2018-02-20T03:57:44.850Z,49.9
2018-02-20T03:58:44.763Z,50.1
2018-02-20T03:59:44.714Z,50.1
2018-02-20T04:00:44.646Z,50.3
2018-02-20T04:01:44.578Z,49.6
2018-02-20T04:02:44.509Z,49.8
2018-02-20T04:03:44.468Z,49.6
2018-02-20T04:04:44.375Z,49.6
2018-02-20T04:05:44.283Z,49.6
2018-02-20T04:06:44.236Z,49.4
2018-02-20T04:07:44.215Z,49.6
2018-02-20T04:08:44.098Z,49.6
2018-02-20T04:09:44.021Z,49.7
2018-02-20T04:10:43.936Z,49.4
2018-02-20T04:11:43.887Z,49.5
2018-02-20T04:12:43.821Z,49.6
2018-02-20T04:13:43.745Z,49.6
2018-02-20T04:14:43.658Z,49.5
2018-02-20T04:15:43.612Z,49.5
2018-02-20T04:16:43.528Z,49.6
2018-02-20T04:17:43.471Z,49.5
2018-02-20T04:18:43.402Z,49.5
2018-02-20T04:19:43.332Z,49.4
2018-02-20T04:20:43.265Z,49.4
2018-02-20T04:21:43.200Z,49.4
2018-02-20T04:22:43.106Z,49.1
2018-02-20T04:23:43.059Z,48.8
2018-02-20T04:24:42.970Z,48.9
2018-02-20T04:25:42.919Z,48.7
2018-02-20T04:26:42.853Z,48.8
2018-02-20T04:27:42.761Z,48
2018-02-20T04:28:42.710Z,47.9
2018-02-20T04:29:42.644Z,47.4
2018-02-20T04:30:42.578Z,47.6
2018-02-20T04:31:42.507Z,47.2
2018-02-20T04:32:42.441Z,47
2018-02-20T04:33:42.370Z,47.3
2018-02-20T04:34:42.298Z,47
2018-02-20T04:35:42.210Z,47.3
2018-02-20T04:36:42.161Z,46.9
2018-02-20T04:37:42.073Z,46.4
2018-02-20T04:38:42.029Z,46.8
2018-02-20T04:39:41.956Z,46.6
2018-02-20T04:40:41.884Z,46.5
2018-02-20T04:41:41.826Z,46.3
2018-02-20T04:42:41.748Z,45.9
2018-02-20T04:43:41.679Z,46.3
2018-02-20T04:44:41.615Z,45.8
2018-02-20T04:45:41.540Z,46
2018-02-20T04:46:41.451Z,45.4
2018-02-20T04:47:41.405Z,45.2
2018-02-20T04:48:41.335Z,45.4
2018-02-20T04:49:41.269Z,45
2018-02-20T04:50:41.201Z,45.1
2018-02-20T04:51:41.126Z,45.1
2018-02-20T04:52:41.061Z,45.4
2018-02-20T04:53:40.991Z,45.4
2018-02-20T04:54:40.901Z,45.4
2018-02-20T04:55:40.852Z,45.4
2018-02-20T04:56:40.787Z,45.3
2018-02-20T04:57:40.695Z,45.5
2018-02-20T04:58:40.646Z,45.4
2018-02-20T04:59:40.556Z,45.5
2018-02-20T05:00:40.506Z,45.4
2018-02-20T05:01:40.439Z,44.8
2018-02-20T05:02:40.368Z,44.9
2018-02-20T05:03:40.306Z,45.3
2018-02-20T05:04:40.234Z,44.5
2018-02-20T05:05:40.165Z,44.2
2018-02-20T05:06:40.079Z,44
2018-02-20T05:07:40.024Z,44.6
2018-02-20T05:08:39.957Z,44.7
2018-02-20T05:09:39.889Z,44.7
2018-02-20T05:10:39.799Z,44.8
2018-02-20T05:11:39.749Z,44.8
2018-02-20T05:12:39.681Z,45.3
2018-02-20T05:13:39.616Z,45.3
2018-02-20T05:14:39.544Z,45.4
2018-02-20T05:15:39.455Z,45.4
2018-02-20T05:16:39.388Z,45.5
2018-02-20T05:17:39.340Z,45.8
2018-02-20T05:18:39.274Z,45.8
2018-02-20T05:19:39.199Z,45.9
2018-02-20T05:20:39.131Z,45.9
2018-02-20T05:21:39.046Z,46.1
2018-02-20T05:22:38.993Z,46.3
2018-02-20T05:23:38.925Z,46.3
2018-02-20T05:24:38.855Z,46.5
2018-02-20T05:25:38.769Z,46.5
2018-02-20T05:26:38.718Z,46.6
2018-02-20T05:27:38.630Z,46.8
2018-02-20T05:28:38.581Z,46.8
2018-02-20T05:29:38.510Z,47
2018-02-20T05:30:38.442Z,47
2018-02-20T05:31:38.354Z,47.1
2018-02-20T05:32:38.302Z,47.3
2018-02-20T05:33:38.236Z,47.3
2018-02-20T05:34:38.165Z,47.4
2018-02-20T05:35:38.100Z,47.5
2018-02-20T05:36:38.033Z,47.6
2018-02-20T05:37:37.958Z,47.7
2018-02-20T05:38:37.893Z,47.8
2018-02-20T05:39:37.823Z,47.9
2018-02-20T05:40:37.733Z,48
2018-02-20T05:41:37.685Z,48.1
2018-02-20T05:42:37.600Z,48.2
2018-02-20T05:43:37.544Z,48.3
2018-02-20T05:44:37.478Z,48.4
2018-02-20T05:45:37.405Z,48.4
2018-02-20T05:46:37.370Z,48.6
2018-02-20T05:47:37.270Z,48.6
2018-02-20T05:48:37.182Z,48.8
2018-02-20T05:49:37.133Z,48.8
2018-02-20T05:50:37.113Z,48.9
2018-02-20T05:51:36.993Z,49.1
2018-02-20T05:52:36.904Z,49.1
2018-02-20T05:53:36.855Z,49.2
2018-02-20T05:54:36.786Z,49.3
2018-02-20T05:55:36.718Z,49.4
2018-02-20T05:56:36.648Z,49.5
2018-02-20T05:57:36.562Z,49.6
2018-02-20T05:58:36.514Z,49.7
2018-02-20T05:59:36.421Z,49.8
2018-02-20T06:00:36.374Z,49.8
2018-02-20T06:01:36.303Z,49.3
2018-02-20T06:02:36.236Z,49.4
2018-02-20T06:03:36.163Z,49.8
2018-02-20T06:04:36.077Z,49.4
2018-02-20T06:05:36.034Z,49.7
2018-02-20T06:06:35.966Z,49.8
2018-02-20T06:07:35.888Z,49.9
2018-02-20T06:08:35.805Z,50.1
2018-02-20T06:09:35.741Z,50.1
2018-02-20T06:10:35.690Z,50.2
2018-02-20T06:11:35.614Z,50.1
2018-02-20T06:12:35.549Z,50.3
2018-02-20T06:13:35.475Z,50.3
2018-02-20T06:14:35.408Z,50.2
2018-02-20T06:15:35.338Z,50.2
2018-02-20T06:16:35.247Z,50.3
2018-02-20T06:17:35.179Z,50.4
2018-02-20T06:18:35.129Z,50.3
2018-02-20T06:19:35.062Z,50.3
2018-02-20T06:20:35.044Z,50.2
2018-02-20T06:21:34.903Z,50.3
2018-02-20T06:22:34.856Z,50.3
2018-02-20T06:23:34.791Z,50.3
2018-02-20T06:24:34.718Z,50.4
2018-02-20T06:25:34.649Z,50.3
2018-02-20T06:26:34.559Z,50.3
2018-02-20T06:27:34.513Z,50.3
2018-02-20T06:28:34.439Z,50.3
2018-02-20T06:29:34.374Z,50.3
2018-02-20T06:30:34.282Z,50.3
2018-02-20T06:31:34.234Z,50.3
2018-02-20T06:32:34.150Z,50.3
2018-02-20T06:33:34.096Z,50.3
2018-02-20T06:34:34.028Z,50.3
2018-02-20T06:35:33.937Z,50.3
2018-02-20T06:36:33.890Z,50.3
2018-02-20T06:37:33.823Z,50.3
2018-02-20T06:38:33.749Z,50.3
2018-02-20T06:39:33.683Z,50.3
2018-02-20T06:40:33.617Z,50.3
2018-02-20T06:41:33.520Z,50.3
2018-02-20T06:42:33.476Z,50.3
2018-02-20T06:43:33.408Z,50.3
2018-02-20T06:44:33.341Z,50.3
2018-02-20T06:45:33.266Z,50.3
2018-02-20T06:46:33.195Z,49.8
2018-02-20T06:47:33.107Z,49.7
2018-02-20T06:48:33.060Z,50
2018-02-20T06:49:32.987Z,49.6
2018-02-20T06:50:32.900Z,49.8
2018-02-20T06:51:32.852Z,49.8
2018-02-20T06:52:32.762Z,49.8
2018-02-20T06:53:32.715Z,49.9
2018-02-20T06:54:32.644Z,49.8
2018-02-20T06:55:32.578Z,49.9
2018-02-20T06:56:32.526Z,49.8
2018-02-20T06:57:32.419Z,49.9
2018-02-20T06:58:32.369Z,50
2018-02-20T06:59:32.279Z,49.9
2018-02-20T07:00:32.231Z,49.9
2018-02-20T07:01:32.160Z,49.3
2018-02-20T07:02:32.093Z,49.4
2018-02-20T07:03:32.003Z,49.6
2018-02-20T07:04:31.954Z,49.2
2018-02-20T07:05:31.885Z,49.4
2018-02-20T07:06:31.814Z,49.3
2018-02-20T07:07:31.745Z,49.4
2018-02-20T07:08:31.658Z,49.5
2018-02-20T07:09:31.611Z,49.4
2018-02-20T07:10:31.544Z,49.5
2018-02-20T07:11:31.453Z,49.3
2018-02-20T07:12:31.398Z,49.6
2018-02-20T07:13:31.331Z,49.6
2018-02-20T07:14:31.262Z,49.5
2018-02-20T07:15:31.201Z,49.4
2018-02-20T07:16:31.104Z,49.4
2018-02-20T07:17:31.057Z,49.6
2018-02-20T07:18:30.986Z,49.5
2018-02-20T07:19:30.918Z,49.4
2018-02-20T07:20:30.828Z,49.5
2018-02-20T07:21:30.759Z,49.4
2018-02-20T07:22:30.708Z,49.5
2018-02-20T07:23:30.642Z,49.6
2018-02-20T07:24:30.552Z,49.6
2018-02-20T07:25:30.507Z,49.5
2018-02-20T07:26:30.441Z,49.4
2018-02-20T07:27:30.365Z,49.5
2018-02-20T07:28:30.296Z,49.5
2018-02-20T07:29:30.216Z,49.5
2018-02-20T07:30:30.161Z,49.4
2018-02-20T07:31:30.093Z,49.5
2018-02-20T07:32:30.025Z,49.6
2018-02-20T07:33:29.930Z,49.6
2018-02-20T07:34:29.884Z,49.6
2018-02-20T07:35:29.842Z,49.6
2018-02-20T07:36:29.757Z,49.6
2018-02-20T07:37:29.672Z,49.6
2018-02-20T07:38:29.629Z,49.6
2018-02-20T07:39:29.544Z,49.6
2018-02-20T07:40:29.476Z,49.5
2018-02-20T07:41:29.385Z,49.6
2018-02-20T07:42:29.329Z,49.6
2018-02-20T07:43:29.239Z,49.6
2018-02-20T07:44:29.193Z,49.6
2018-02-20T07:45:29.123Z,49.5
2018-02-20T07:46:29.032Z,49.6
2018-02-20T07:47:28.981Z,49.5
2018-02-20T07:48:28.920Z,49.6
2018-02-20T07:49:28.843Z,49.6
2018-02-20T07:50:28.774Z,49.5
2018-02-20T07:51:28.707Z,49.6
2018-02-20T07:52:28.615Z,49.6
2018-02-20T07:53:28.548Z,49.6
2018-02-20T07:54:28.502Z,49.6
2018-02-20T07:55:28.431Z,49.6
2018-02-20T07:56:28.357Z,49.6
2018-02-20T07:57:28.297Z,49.6
2018-02-20T07:58:28.225Z,49.6
2018-02-20T07:59:28.134Z,49.6
2018-02-20T08:00:28.086Z,49.6
2018-02-20T08:01:28.015Z,49.1
2018-02-20T08:02:27.924Z,49
2018-02-20T08:03:27.878Z,49.4
2018-02-20T08:04:27.785Z,49
2018-02-20T08:05:27.744Z,49.1
2018-02-20T08:06:27.667Z,49.2
2018-02-20T08:07:27.600Z,49.1
2018-02-20T08:08:27.527Z,49.3
2018-02-20T08:09:27.462Z,49.3
2018-02-20T08:10:27.377Z,49.2
2018-02-20T08:11:27.323Z,49.4
2018-02-20T08:12:27.254Z,49.3
2018-02-20T08:13:27.188Z,49.6
2018-02-20T08:14:27.096Z,49.2
2018-02-20T08:15:27.047Z,49.3
2018-02-20T08:16:26.978Z,49.5
2018-02-20T08:17:26.966Z,49.4
2018-02-20T08:18:26.838Z,49.4
2018-02-20T08:19:26.755Z,49.2
2018-02-20T08:20:26.711Z,49.3
2018-02-20T08:21:26.630Z,49.7
2018-02-20T08:22:26.563Z,49.4
2018-02-20T08:23:26.495Z,49.6
2018-02-20T08:24:26.404Z,49.4
2018-02-20T08:25:26.336Z,49.7
2018-02-20T08:26:26.289Z,49.6
2018-02-20T08:27:26.218Z,49.6
2018-02-20T08:28:26.150Z,49.6
2018-02-20T08:29:26.059Z,49.5
2018-02-20T08:30:26.011Z,49.5
2018-02-20T08:31:25.946Z,49.5
2018-02-20T08:32:25.872Z,49.6
2018-02-20T08:33:25.804Z,49.6
2018-02-20T08:34:25.714Z,49.6
2018-02-20T08:35:25.643Z,49.6
2018-02-20T08:36:25.601Z,49.7
2018-02-20T08:37:25.530Z,49.7
2018-02-20T08:38:25.456Z,49.7
2018-02-20T08:39:25.390Z,49.8
2018-02-20T08:40:25.325Z,49.8
2018-02-20T08:41:25.256Z,49.8
2018-02-20T08:42:25.185Z,49.8
2018-02-20T08:43:25.115Z,49.8
2018-02-20T08:44:25.028Z,49.9
2018-02-20T08:45:24.978Z,49.9
2018-02-20T08:46:24.885Z,49.9
2018-02-20T08:47:24.843Z,49.9
2018-02-20T08:48:24.775Z,49.9
2018-02-20T08:49:24.697Z,50
2018-02-20T08:50:24.625Z,50
2018-02-20T08:51:24.539Z,50
2018-02-20T08:52:24.500Z,50.1
2018-02-20T08:53:24.400Z,50.1
2018-02-20T08:54:24.353Z,50.1
2018-02-20T08:55:24.332Z,50.1
2018-02-20T08:56:24.214Z,50.1
2018-02-20T08:57:24.200Z,50.2
2018-02-20T08:58:24.075Z,50.2
2018-02-20T08:59:24.008Z,50.3
2018-02-20T09:00:23.937Z,50.3
2018-02-20T09:01:23.865Z,49.9
2018-02-20T09:02:23.777Z,49.7
2018-02-20T09:03:23.730Z,50.2
2018-02-20T09:04:23.661Z,49.9
2018-02-20T09:05:23.588Z,49.8
2018-02-20T09:06:23.522Z,50.1
2018-02-20T09:07:23.454Z,49.9
2018-02-20T09:08:23.391Z,50.1
2018-02-20T09:09:23.320Z,50.3
2018-02-20T09:10:23.232Z,50.1
2018-02-20T09:11:23.246Z,50.2
2018-02-20T09:12:23.106Z,50.1
2018-02-20T09:13:23.021Z,50.3
2018-02-20T09:14:22.969Z,50.4
2018-02-20T09:15:22.878Z,50.2
2018-02-20T09:16:22.842Z,50.3
2018-02-20T09:17:22.761Z,50.4
2018-02-20T09:18:22.673Z,50.4
2018-02-20T09:19:22.628Z,50.5
2018-02-20T09:20:22.552Z,50.4
2018-02-20T09:21:22.534Z,50.4
2018-02-20T09:22:22.414Z,50.5
2018-02-20T09:23:22.325Z,50.5
2018-02-20T09:24:22.279Z,50.6
2018-02-20T09:25:22.208Z,50.6
2018-02-20T09:26:22.152Z,50.6
2018-02-20T09:27:22.055Z,50.6
2018-02-20T09:28:22.011Z,50.7
2018-02-20T09:29:21.933Z,50.7
2018-02-20T09:30:21.866Z,50.8
2018-02-20T09:31:21.820Z,50.8
2018-02-20T09:32:21.723Z,50.8
2018-02-20T09:33:21.654Z,50.8
2018-02-20T09:34:21.644Z,50.8
2018-02-20T09:35:21.501Z,50.9
2018-02-20T09:36:21.448Z,50.9
2018-02-20T09:37:21.382Z,50.9
2018-02-20T09:38:21.310Z,50.9
2018-02-20T09:39:21.242Z,50.9
2018-02-20T09:40:21.159Z,51
2018-02-20T09:41:21.100Z,51
2018-02-20T09:42:21.090Z,51.1
2018-02-20T09:43:20.962Z,51.1
2018-02-20T09:44:20.892Z,51.1
2018-02-20T09:45:20.804Z,51.1
2018-02-20T09:46:20.757Z,51.2
2018-02-20T09:47:20.718Z,51.2
2018-02-20T09:48:20.615Z,51.3
2018-02-20T09:49:20.554Z,51.3
2018-02-20T09:50:20.477Z,51.3
2018-02-20T09:51:20.460Z,51.3
2018-02-20T09:52:20.390Z,51.3
2018-02-20T09:53:20.270Z,51.4
2018-02-20T09:54:20.252Z,51.4
2018-02-20T09:55:20.134Z,51.4
2018-02-20T09:56:20.043Z,51.4
2018-02-20T09:57:19.996Z,51.5
2018-02-20T09:58:19.908Z,51.6
2018-02-20T09:59:19.854Z,51.6
2018-02-20T10:00:19.788Z,51.6
2018-02-20T10:01:19.716Z,51.4
2018-02-20T10:02:19.631Z,51.3
2018-02-20T10:03:19.580Z,51.6
2018-02-20T10:04:19.496Z,51.6
2018-02-20T10:05:19.442Z,51.3
2018-02-20T10:06:19.372Z,51.6
2018-02-20T10:07:19.300Z,51.6
2018-02-20T10:08:19.214Z,51.6
2018-02-20T10:09:19.165Z,51.8
2018-02-20T10:10:19.094Z,51.8
2018-02-20T10:11:19.025Z,51.6
2018-02-20T10:12:18.957Z,51.8
2018-02-20T10:13:18.872Z,51.8
2018-02-20T10:14:18.819Z,51.9
2018-02-20T10:15:18.729Z,51.9
2018-02-20T10:16:18.721Z,51.9
2018-02-20T10:17:18.610Z,51.9
2018-02-20T10:18:18.542Z,52
2018-02-20T10:19:18.475Z,52
2018-02-20T10:20:18.387Z,52.1
2018-02-20T10:21:18.336Z,52.1
2018-02-20T10:22:18.267Z,52.1
2018-02-20T10:23:18.215Z,52.1
2018-02-20T10:24:18.107Z,52.2
2018-02-20T10:25:18.039Z,52.3
2018-02-20T10:26:17.992Z,52.3
2018-02-20T10:27:17.920Z,52.3
2018-02-20T10:28:17.849Z,52.3
2018-02-20T10:29:17.780Z,52.3
2018-02-20T10:30:17.715Z,52.4
2018-02-20T10:31:17.651Z,52.5
2018-02-20T10:32:17.554Z,52.5
2018-02-20T10:33:17.485Z,52.6
2018-02-20T10:34:17.434Z,52.6
2018-02-20T10:35:17.368Z,52.6
2018-02-20T10:36:17.307Z,52.6
2018-02-20T10:37:17.208Z,52.7
2018-02-20T10:38:17.157Z,52.8
2018-02-20T10:39:17.091Z,52.8
2018-02-20T10:40:17.024Z,52.8
2018-02-20T10:41:16.956Z,52.9
2018-02-20T10:42:16.862Z,52.9
2018-02-20T10:43:16.818Z,52.9
2018-02-20T10:44:16.724Z,53
2018-02-20T10:45:16.674Z,53.1
2018-02-20T10:46:16.607Z,53.1
2018-02-20T10:47:16.539Z,53.2
2018-02-20T10:48:16.466Z,53.3
2018-02-20T10:49:16.384Z,53.3
2018-02-20T10:50:16.329Z,53.3
2018-02-20T10:51:16.265Z,53.4
2018-02-20T10:52:16.192Z,53.4
2018-02-20T10:53:16.101Z,53.5
2018-02-20T10:54:16.055Z,53.6
2018-02-20T10:55:15.964Z,53.6
2018-02-20T10:56:15.915Z,53.6
2018-02-20T10:57:15.845Z,53.8
2018-02-20T10:58:15.775Z,53.8
2018-02-20T10:59:15.686Z,53.8
2018-02-20T11:00:15.638Z,53.9
2018-02-20T11:01:15.547Z,53.9
2018-02-20T11:02:15.501Z,53.8
2018-02-20T11:03:15.434Z,53.9
2018-02-20T11:04:15.359Z,54.1
2018-02-20T11:05:15.292Z,54
2018-02-20T11:06:15.226Z,54.1
2018-02-20T11:07:15.155Z,54.2
2018-02-20T11:08:15.084Z,54.1
2018-02-20T11:09:15.012Z,54.3
2018-02-20T11:10:14.926Z,54.4
2018-02-20T11:11:14.876Z,54.4
2018-02-20T11:12:14.810Z,54.4
2018-02-20T11:13:14.801Z,54.5
2018-02-20T11:14:14.650Z,54.5
2018-02-20T11:15:14.605Z,54.6
2018-02-20T11:16:14.513Z,54.7
2018-02-20T11:17:14.460Z,54.8
2018-02-20T11:18:14.393Z,54.8
2018-02-20T11:19:14.364Z,54.9
2018-02-20T11:20:14.233Z,54.9
2018-02-20T11:21:14.186Z,55
2018-02-20T11:22:14.118Z,55.1
2018-02-20T11:23:14.045Z,55.1
2018-02-20T11:24:13.978Z,55.2
2018-02-20T11:25:13.891Z,55.3
2018-02-20T11:26:13.819Z,55.3
2018-02-20T11:27:13.774Z,55.4
2018-02-20T11:28:13.715Z,55.4
2018-02-20T11:29:13.633Z,55.5
2018-02-20T11:30:13.561Z,55.6
2018-02-20T11:31:13.473Z,55.6
2018-02-20T11:32:13.424Z,55.7
2018-02-20T11:33:13.355Z,55.8
2018-02-20T11:34:13.284Z,55.8
2018-02-20T11:35:13.200Z,55.9
2018-02-20T11:36:13.148Z,56
2018-02-20T11:37:13.079Z,56.1
2018-02-20T11:38:13.010Z,56.1
2018-02-20T11:39:12.937Z,56.2
2018-02-20T11:40:12.872Z,56.2
2018-02-20T11:41:12.802Z,56.3
2018-02-20T11:42:12.713Z,56.3
2018-02-20T11:43:12.664Z,56.4
2018-02-20T11:44:12.582Z,56.4
2018-02-20T11:45:12.576Z,56.5
2018-02-20T11:46:12.456Z,56.6
2018-02-20T11:47:12.366Z,56.6
2018-02-20T11:48:12.319Z,56.6
2018-02-20T11:49:12.248Z,56.7
2018-02-20T11:50:12.178Z,56.8
2018-02-20T11:51:12.109Z,56.8
2018-02-20T11:52:12.040Z,56.9
2018-02-20T11:53:11.972Z,56.9
2018-02-20T11:54:11.903Z,56.9
2018-02-20T11:55:11.802Z,57
2018-02-20T11:56:11.792Z,57.1
2018-02-20T11:57:11.665Z,57.1
2018-02-20T11:58:11.585Z,57.1
2018-02-20T11:59:11.510Z,57.2
2018-02-20T12:00:11.438Z,57.2
2018-02-20T12:01:11.348Z,57.3
2018-02-20T12:02:11.309Z,57.2
2018-02-20T12:03:11.194Z,57.3
2018-02-20T12:04:11.097Z,57.3
2018-02-20T12:05:11.039Z,57.3
2018-02-20T12:06:10.937Z,57.4
2018-02-20T12:07:10.877Z,57.4
2018-02-20T12:08:10.812Z,57.4
2018-02-20T12:09:10.724Z,57.4
2018-02-20T12:10:10.644Z,57.5
2018-02-20T12:11:10.565Z,57.5
2018-02-20T12:12:10.538Z,57.6
2018-02-20T12:13:10.407Z,57.6
2018-02-20T12:14:10.308Z,57.6
2018-02-20T12:15:10.257Z,57.6
2018-02-20T12:16:10.176Z,57.7
2018-02-20T12:17:10.075Z,57.7
2018-02-20T12:18:10.018Z,57.7
2018-02-20T12:19:09.918Z,57.8
2018-02-20T12:20:09.860Z,57.8
2018-02-20T12:21:09.782Z,57.9
2018-02-20T12:22:09.707Z,57.9
2018-02-20T12:23:09.625Z,57.9
2018-02-20T12:24:09.545Z,57.9
2018-02-20T12:25:09.446Z,58
2018-02-20T12:26:09.389Z,58
2018-02-20T12:27:09.290Z,58.1
2018-02-20T12:28:09.229Z,58.1
2018-02-20T12:29:09.202Z,58.1
2018-02-20T12:30:09.076Z,58.1
2018-02-20T12:31:08.975Z,58.2
2018-02-20T12:32:08.915Z,58.2
2018-02-20T12:33:08.837Z,58.3
2018-02-20T12:34:08.760Z,58.3
2018-02-20T12:35:08.682Z,58.3
2018-02-20T12:36:08.583Z,58.3
2018-02-20T12:37:08.528Z,58.4
2018-02-20T12:38:08.426Z,58.4
2018-02-20T12:39:08.364Z,58.4
2018-02-20T12:40:08.294Z,58.5
2018-02-20T12:41:08.211Z,58.5
2018-02-20T12:42:08.138Z,58.5
2018-02-20T12:43:08.033Z,58.5
2018-02-20T12:44:07.972Z,58.6
2018-02-20T12:45:07.898Z,58.6
2018-02-20T12:46:07.817Z,58.6
2018-02-20T12:47:07.721Z,58.7
2018-02-20T12:48:07.664Z,58.7
2018-02-20T12:49:07.581Z,58.8
2018-02-20T12:50:07.503Z,58.8
2018-02-20T12:51:07.425Z,58.8
2018-02-20T12:52:07.344Z,58.8
2018-02-20T12:53:07.246Z,58.8
2018-02-20T12:54:07.188Z,58.9
2018-02-20T12:55:07.089Z,58.9
2018-02-20T12:56:07.032Z,58.9
2018-02-20T12:57:06.951Z,58.9
2018-02-20T12:58:06.853Z,58.9
2018-02-20T12:59:06.822Z,59
2018-02-20T13:00:06.720Z,59
2018-02-20T13:01:06.638Z,59
2018-02-20T13:02:06.558Z,59
2018-02-20T13:03:06.480Z,59
2018-02-20T13:04:06.436Z,59.1
2018-02-20T13:05:06.328Z,59.1
2018-02-20T13:06:06.244Z,59.1
2018-02-20T13:07:06.167Z,59
2018-02-20T13:08:06.067Z,59.1
2018-02-20T13:09:06.025Z,59.1
2018-02-20T13:10:05.911Z,59.1
2018-02-20T13:11:05.851Z,59.1
2018-02-20T13:12:05.773Z,59.1
2018-02-20T13:13:05.678Z,59.1
2018-02-20T13:14:05.627Z,59.1
2018-02-20T13:15:05.538Z,59.1
2018-02-20T13:16:05.457Z,59.1
2018-02-20T13:17:05.388Z,59.1
2018-02-20T13:18:05.304Z,59.1
2018-02-20T13:19:05.202Z,59.1
2018-02-20T13:20:05.127Z,59.2
2018-02-20T13:21:05.067Z,59.2